首页
METAR-TAF:

METAR-TAF

机场 :

烏代浦, 印度

纬度: 24-37-04N, 经度: 73-53-46E, 海拔: 513米

当前天气观测

该预报发布于9小时和29分钟前的14:30 UTC
风速6节,风向
温度 34°C
湿度 44%
气压 1005 hPa
能見度: 4000
散云层高于2500英尺
多云层高于3000英尺

METAR: VAUD 161430Z 09006KT 4000 HZ SCT025 BKN030 34/20 Q1005 TEMPO 3000 -RA

时间: 05:29 (23:59 UTC)

预报

该预报发布于12小时和59分钟前的11:00 UTC
预报有效从16日的 12点(UTC)到 16日的 21点(UTC)
风速8节,风向西转西南
能見度: 5000
散云层高于3000英尺
少量云层高于3500英尺, 积雨云.
多云层高于9000英尺
霾, 雷暴, 雨,

TAF: VAUD 161100Z 1612/1621 25008KT 5000 HZ TSRA SCT030 FEW035CB BKN090

超过4000个机场的气象观测和天气预报(METAR&TAF报告)。

可查询的气象台以黄色和红色小点在地图上表示。

将鼠标移到小点上方,可查看气象台名称。

然后点击查看天气观测和预报。

如需切换地图:点击带黑十字的绿色按钮放大地图;点击带横线的绿色按钮缩小地图;或者点击绿色箭头查看邻近地区的地图。


METAR-TAF: